Time;durP1;ratioP1;P1;durP2;ratioP2;P2;SDS_P1;SDS_P2;PMS_P1;PMS_P2;Temp;Humidity;BMP_temperature;BMP_pressure;BME280_temperature;BME280_humidity;BME280_pressure;Samples;Min_cycle;Max_cycle;Signal;HPM_P1;HPM_P2
2021/11/20 00:01:16;;;;;;;7.90;4.70;;;9.00;99.90;;;;;;5049341;28;20045;-85
2021/11/20 00:03:45;;;;;;;6.90;4.30;;;9.00;99.90;;;;;;5037261;28;20138;-86
2021/11/20 00:06:22;;;;;;;5.68;4.80;;;9.10;99.90;;;;;;5054506;28;20430;-86
2021/11/20 00:08:49;;;;;;;8.50;4.70;;;9.10;99.90;;;;;;5055025;28;20135;-86
2021/11/20 00:11:18;;;;;;;5.75;4.35;;;9.10;99.90;;;;;;5054496;28;20124;-85
2021/11/20 00:13:46;;;;;;;6.78;4.93;;;9.00;99.90;;;;;;5037059;28;20051;-86
2021/11/20 00:16:13;;;;;;;5.65;4.70;;;9.00;99.90;;;;;;5055503;28;20053;-86
2021/11/20 00:18:41;;;;;;;4.93;4.53;;;9.00;99.90;;;;;;5036885;28;20052;-86
2021/11/20 00:21:20;;;;;;;5.03;4.53;;;9.00;99.90;;;;;;5054614;28;20045;-86
2021/11/20 00:23:51;;;;;;;6.07;4.82;;;9.00;99.90;;;;;;5035520;28;20106;-86
2021/11/20 00:26:20;;;;;;;4.97;4.55;;;9.10;99.90;;;;;;5054062;28;20136;-85
2021/11/20 00:29:44;;;;;;;5.28;4.55;;;9.10;99.90;;;;;;5022736;28;20149;-86
2021/11/20 00:31:49;;;;;;;7.07;4.45;;;9.10;99.90;;;;;;5024031;28;20132;-86
2021/11/20 00:34:19;;;;;;;7.63;3.95;;;9.10;99.90;;;;;;5034104;28;20474;-85
2021/11/20 00:36:47;;;;;;;6.15;4.32;;;9.10;99.90;;;;;;5027796;28;20087;-86
2021/11/20 00:39:16;;;;;;;6.63;4.38;;;9.00;99.90;;;;;;5036545;28;20412;-86
2021/11/20 00:41:45;;;;;;;7.70;5.03;;;9.00;99.90;;;;;;5036704;28;20103;-85
2021/11/20 00:44:12;;;;;;;5.30;4.25;;;9.00;99.90;;;;;;5036419;28;20044;-86
2021/11/20 00:46:40;;;;;;;5.10;4.57;;;9.10;99.90;;;;;;5028837;28;20132;-86
2021/11/20 00:49:08;;;;;;;4.80;3.90;;;9.10;99.90;;;;;;5016377;28;20053;-86
2021/11/20 00:51:35;;;;;;;5.18;4.07;;;9.10;99.90;;;;;;5016660;28;20084;-86
2021/11/20 00:54:03;;;;;;;7.63;4.07;;;9.10;99.90;;;;;;5034094;28;20053;-85
2021/11/20 00:56:31;;;;;;;4.47;4.07;;;9.10;99.90;;;;;;5016448;28;20396;-86
2021/11/20 00:58:59;;;;;;;6.50;4.03;;;9.10;99.90;;;;;;5033797;28;20485;-86
2021/11/20 01:01:33;;;;;;;5.53;4.05;;;9.10;99.90;;;;;;5034114;28;20408;-87
2021/11/20 01:04:01;;;;;;;4.57;4.28;;;9.20;99.90;;;;;;5033797;28;20045;-85
2021/11/20 01:06:29;;;;;;;5.93;4.00;;;9.10;99.90;;;;;;5041571;28;20074;-85
2021/11/20 01:08:57;;;;;;;7.05;4.00;;;9.20;99.90;;;;;;5053104;28;20139;-86
2021/11/20 01:11:35;;;;;;;4.93;4.25;;;9.20;99.90;;;;;;5052657;28;20037;-86
2021/11/20 01:14:05;;;;;;;4.45;3.80;;;9.20;99.90;;;;;;5035850;28;20055;-85
2021/11/20 01:16:33;;;;;;;4.38;3.97;;;9.20;99.90;;;;;;5052931;28;20297;-85
2021/11/20 01:19:02;;;;;;;4.53;4.00;;;9.20;99.90;;;;;;5035866;28;20045;-86
2021/11/20 01:21:31;;;;;;;4.78;4.07;;;9.20;99.90;;;;;;5053540;28;20159;-86
2021/11/20 01:23:58;;;;;;;6.60;4.35;;;9.20;99.90;;;;;;5035630;28;20500;-85
2021/11/20 01:26:25;;;;;;;5.70;3.83;;;9.20;99.90;;;;;;5055441;28;20091;-85
2021/11/20 01:28:55;;;;;;;4.25;3.47;;;9.20;99.90;;;;;;5071355;28;20063;-86
2021/11/20 01:31:25;;;;;;;3.92;3.50;;;9.20;99.90;;;;;;5055619;28;20041;-86
2021/11/20 01:33:53;;;;;;;5.30;3.78;;;9.20;99.90;;;;;;5055501;28;20045;-85
2021/11/20 01:36:28;;;;;;;4.43;3.70;;;9.20;99.90;;;;;;5054647;28;20484;-86
2021/11/20 01:38:56;;;;;;;4.35;3.72;;;9.20;99.90;;;;;;5054854;28;20048;-86
2021/11/20 01:41:27;;;;;;;4.05;3.50;;;9.20;99.90;;;;;;5054942;28;20049;-86
2021/11/20 01:43:57;;;;;;;4.30;4.00;;;9.30;99.90;;;;;;5054105;28;20061;-86
2021/11/20 01:46:28;;;;;;;4.75;4.20;;;9.30;99.90;;;;;;5054917;28;20072;-86
2021/11/20 01:49:27;;;;;;;4.32;3.75;;;9.30;99.90;;;;;;5055316;28;20095;-86
2021/11/20 01:52:01;;;;;;;4.55;4.15;;;9.30;99.90;;;;;;5052101;28;20045;-85
2021/11/20 01:54:52;;;;;;;5.53;4.03;;;9.30;99.90;;;;;;5072569;28;20048;-86
2021/11/20 01:57:42;;;;;;;5.72;4.15;;;9.30;99.90;;;;;;5053975;28;20530;-86
2021/11/20 02:00:21;;;;;;;5.40;4.07;;;9.30;99.90;;;;;;5057895;28;20143;-86
2021/11/20 02:03:02;;;;;;;4.68;4.25;;;9.30;99.90;;;;;;5055395;28;20050;-86
2021/11/20 02:06:01;;;;;;;4.53;4.03;;;9.40;99.90;;;;;;5072879;28;20080;-86
2021/11/20 02:08:43;;;;;;;4.55;4.15;;;9.40;99.90;;;;;;5072895;28;20132;-86
2021/11/20 02:11:15;;;;;;;5.95;4.55;;;9.40;99.90;;;;;;5072357;28;20053;-86
2021/11/20 02:13:42;;;;;;;5.15;4.50;;;9.40;99.90;;;;;;5055555;28;20048;-86
2021/11/20 02:16:15;;;;;;;5.22;4.38;;;9.40;99.90;;;;;;5072516;28;20518;-86
2021/11/20 02:18:50;;;;;;;6.22;4.30;;;9.40;99.90;;;;;;5071867;28;20056;-86
2021/11/20 02:21:38;;;;;;;5.88;4.95;;;9.50;99.90;;;;;;5074741;28;20055;-86
2021/11/20 02:24:05;;;;;;;5.68;4.88;;;9.40;99.90;;;;;;5059321;28;20087;-86
2021/11/20 02:26:31;;;;;;;4.97;4.57;;;9.40;99.90;;;;;;5051342;28;20139;-86
2021/11/20 02:29:04;;;;;;;5.10;4.65;;;9.40;99.90;;;;;;5056898;28;20045;-86
2021/11/20 02:31:30;;;;;;;6.50;5.13;;;9.40;99.90;;;;;;5053463;28;20059;-87
2021/11/20 02:33:57;;;;;;;5.32;4.82;;;9.40;99.90;;;;;;5057040;28;20098;-86
2021/11/20 02:36:24;;;;;;;5.50;5.00;;;9.40;99.90;;;;;;5056567;28;20502;-86
2021/11/20 02:39:05;;;;;;;6.10;5.25;;;9.40;99.90;;;;;;5047859;28;20053;-86
2021/11/20 02:41:36;;;;;;;5.75;5.05;;;9.40;99.90;;;;;;5075727;28;20057;-86
2021/11/20 02:44:04;;;;;;;6.50;5.80;;;9.40;99.90;;;;;;5075753;28;20498;-86
2021/11/20 02:46:36;;;;;;;6.15;5.50;;;9.40;99.90;;;;;;5065980;28;20056;-86
2021/11/20 02:49:04;;;;;;;6.00;5.40;;;9.40;99.90;;;;;;5075734;28;20044;-87
2021/11/20 02:51:34;;;;;;;6.20;5.60;;;9.30;99.90;;;;;;5075533;28;20488;-86
2021/11/20 02:54:15;;;;;;;10.55;5.63;;;9.30;99.90;;;;;;5072061;28;20072;-86
2021/11/20 02:56:50;;;;;;;8.98;5.47;;;9.30;99.90;;;;;;5058288;28;20045;-86
2021/11/20 02:59:17;;;;;;;7.20;5.80;;;9.30;99.90;;;;;;5076353;28;20053;-86
2021/11/20 03:01:46;;;;;;;6.88;6.15;;;9.30;99.90;;;;;;5076304;28;20052;-86
2021/11/20 03:04:18;;;;;;;6.53;5.80;;;9.30;99.90;;;;;;5076121;28;20137;-86
2021/11/20 03:06:47;;;;;;;7.88;6.25;;;9.30;99.90;;;;;;5058715;28;20475;-86
2021/11/20 03:09:13;;;;;;;7.18;6.45;;;9.30;99.90;;;;;;5047295;28;20072;-87
2021/11/20 03:11:43;;;;;;;7.28;6.57;;;9.30;99.90;;;;;;5038689;28;20485;-86
2021/11/20 03:14:11;;;;;;;8.30;6.85;;;9.30;99.90;;;;;;5038628;28;20083;-86
2021/11/20 03:16:42;;;;;;;8.27;6.38;;;9.30;99.90;;;;;;5036928;28;20483;-86
2021/11/20 03:19:09;;;;;;;9.05;6.35;;;9.30;99.90;;;;;;5055840;28;20426;-87
2021/11/20 03:21:40;;;;;;;7.00;6.13;;;9.30;99.90;;;;;;5056122;28;20400;-86
2021/11/20 03:24:10;;;;;;;6.80;6.20;;;9.30;99.90;;;;;;5055240;28;20063;-87
2021/11/20 03:26:37;;;;;;;6.93;6.18;;;9.30;99.90;;;;;;5075704;28;20136;-86
2021/11/20 03:29:04;;;;;;;6.72;6.13;;;9.30;99.90;;;;;;5075866;28;20060;-86
2021/11/20 03:31:30;;;;;;;9.90;6.55;;;9.30;99.90;;;;;;5074656;28;20049;-86
2021/11/20 03:33:57;;;;;;;9.35;6.90;;;9.30;99.90;;;;;;5074966;28;20053;-86
2021/11/20 03:36:24;;;;;;;7.53;6.30;;;9.30;99.90;;;;;;5074394;28;20052;-86
2021/11/20 03:38:51;;;;;;;7.70;6.40;;;9.30;99.90;;;;;;5037809;28;20053;-86
2021/11/20 03:41:17;;;;;;;10.18;6.75;;;9.30;99.90;;;;;;5055524;28;20041;-86
2021/11/20 03:43:45;;;;;;;7.50;6.05;;;9.30;99.90;;;;;;5038106;28;20051;-85
2021/11/20 03:46:12;;;;;;;10.82;6.65;;;9.30;99.90;;;;;;5037642;28;20051;-86
2021/11/20 03:48:39;;;;;;;6.63;6.00;;;9.30;99.90;;;;;;5037972;28;20053;-86
2021/11/20 03:51:06;;;;;;;7.65;6.82;;;9.30;99.90;;;;;;5058563;28;20040;-86
2021/11/20 03:53:34;;;;;;;10.73;6.78;;;9.40;99.90;;;;;;5074604;28;20056;-86
2021/11/20 03:56:01;;;;;;;8.82;6.90;;;9.40;99.90;;;;;;5074314;28;20079;-86
2021/11/20 03:58:28;;;;;;;7.53;6.55;;;9.30;99.90;;;;;;5073777;28;20408;-85
2021/11/20 04:01:00;;;;;;;7.07;6.10;;;9.30;99.90;;;;;;5057638;28;20135;-86
2021/11/20 04:03:27;;;;;;;6.97;6.10;;;9.30;99.90;;;;;;5074129;28;20463;-86
2021/11/20 04:05:55;;;;;;;10.02;6.20;;;9.30;99.90;;;;;;5049549;28;20049;-86
2021/11/20 04:08:27;;;;;;;6.53;5.78;;;9.40;99.90;;;;;;5037484;28;20064;-86
2021/11/20 04:10:56;;;;;;;7.07;5.63;;;9.30;99.90;;;;;;5037356;28;20052;-86
2021/11/20 04:13:23;;;;;;;9.20;5.65;;;9.30;99.90;;;;;;5054946;28;20108;-86
2021/11/20 04:15:50;;;;;;;7.60;5.70;;;9.30;99.90;;;;;;5037539;28;20049;-87
2021/11/20 04:18:17;;;;;;;5.32;4.70;;;9.30;99.90;;;;;;5037449;28;20045;-86
2021/11/20 04:20:45;;;;;;;6.45;4.95;;;9.30;99.90;;;;;;5065973;28;20055;-86
2021/11/20 04:23:12;;;;;;;5.68;5.18;;;9.20;99.90;;;;;;5044208;28;20053;-86
2021/11/20 04:25:40;;;;;;;5.60;5.00;;;9.30;99.90;;;;;;5054397;28;20049;-86
2021/11/20 04:28:07;;;;;;;6.72;5.32;;;9.30;99.90;;;;;;5054769;28;20485;-86
2021/11/20 04:30:34;;;;;;;8.32;5.05;;;9.30;99.90;;;;;;5037153;28;20436;-86
2021/11/20 04:33:00;;;;;;;9.35;7.43;;;9.30;99.90;;;;;;5054756;28;20049;-86
2021/11/20 04:35:28;;;;;;;8.48;7.68;;;9.30;99.90;;;;;;5052137;28;20937;-86
2021/11/20 04:37:55;;;;;;;15.10;10.55;;;9.30;99.90;;;;;;5071806;28;20408;-85
2021/11/20 04:40:23;;;;;;;7.50;6.80;;;9.30;99.90;;;;;;5071229;28;20051;-86
2021/11/20 04:42:51;;;;;;;7.55;6.70;;;9.20;99.90;;;;;;5056533;28;20054;-86
2021/11/20 04:45:21;;;;;;;5.82;5.18;;;9.20;99.90;;;;;;5056671;28;20449;-86
2021/11/20 04:47:48;;;;;;;6.95;4.53;;;9.20;99.90;;;;;;5074650;28;20076;-86
2021/11/20 04:50:16;;;;;;;6.90;5.35;;;9.20;99.90;;;;;;5036721;28;20408;-86
2021/11/20 04:52:43;;;;;;;4.93;4.53;;;9.20;99.90;;;;;;5036606;28;20091;-85
2021/11/20 04:55:10;;;;;;;4.95;4.50;;;9.20;99.90;;;;;;5052904;28;20099;-86
2021/11/20 04:57:40;;;;;;;5.95;4.72;;;9.20;99.90;;;;;;5052890;28;20045;-86
2021/11/20 05:00:14;;;;;;;6.50;4.43;;;9.20;99.90;;;;;;5052933;28;20055;-85
2021/11/20 05:02:41;;;;;;;5.30;4.80;;;9.20;99.90;;;;;;5052553;28;20051;-86
2021/11/20 05:05:09;;;;;;;4.38;3.97;;;9.20;99.90;;;;;;5056152;28;20051;-86
2021/11/20 05:07:36;;;;;;;4.95;4.55;;;9.10;99.90;;;;;;5073939;28;20048;-86
2021/11/20 05:10:06;;;;;;;6.35;5.63;;;9.10;99.90;;;;;;5056394;28;20453;-86
2021/11/20 05:12:33;;;;;;;6.20;5.60;;;9.10;99.90;;;;;;5052627;28;20055;-86
2021/11/20 05:15:00;;;;;;;5.47;4.97;;;9.10;99.90;;;;;;5037787;28;20087;-86
2021/11/20 05:17:27;;;;;;;4.70;4.40;;;9.00;99.90;;;;;;5035712;28;20143;-87
2021/11/20 05:19:54;;;;;;;8.10;4.60;;;9.10;99.90;;;;;;5052450;28;20110;-86
2021/11/20 05:22:20;;;;;;;4.90;4.40;;;9.10;99.90;;;;;;5052515;28;20056;-86
2021/11/20 05:24:47;;;;;;;7.32;4.85;;;9.10;99.90;;;;;;5053262;28;20485;-85
2021/11/20 05:27:14;;;;;;;5.93;4.47;;;9.10;99.90;;;;;;5052395;28;20056;-85
2021/11/20 05:32:27;;;;;;;5.68;4.70;;;9.10;99.90;;;;;;5053121;28;20055;-85
2021/11/20 05:34:53;;;;;;;5.45;3.83;;;9.10;99.90;;;;;;5065786;28;20064;-86
2021/11/20 05:37:20;;;;;;;3.95;3.50;;;9.10;99.90;;;;;;5073280;28;20048;-86
2021/11/20 05:39:47;;;;;;;4.53;4.18;;;9.10;99.90;;;;;;5055914;28;20407;-85
2021/11/20 05:42:14;;;;;;;9.02;4.97;;;9.10;99.90;;;;;;5055635;28;20048;-86
2021/11/20 05:44:41;;;;;;;5.63;5.00;;;9.10;99.90;;;;;;5052494;28;20503;-86
2021/11/20 05:47:08;;;;;;;11.52;7.03;;;9.10;99.90;;;;;;5053197;28;20126;-86
2021/11/20 05:49:39;;;;;;;9.40;6.97;;;9.10;99.90;;;;;;5053210;28;20048;-86
2021/11/20 05:52:08;;;;;;;8.65;7.10;;;9.10;99.90;;;;;;5053037;28;20091;-86
2021/11/20 05:54:35;;;;;;;7.40;6.25;;;9.10;99.90;;;;;;5051710;28;20497;-86
2021/11/20 05:57:02;;;;;;;8.18;5.07;;;9.20;99.90;;;;;;5054376;28;20049;-85
2021/11/20 05:59:29;;;;;;;7.28;5.60;;;9.20;99.90;;;;;;5050267;28;20159;-86
2021/11/20 06:01:56;;;;;;;5.32;4.82;;;9.30;99.90;;;;;;5072770;28;20062;-86
2021/11/20 06:04:26;;;;;;;6.05;5.45;;;9.20;99.90;;;;;;5072653;28;20056;-86
2021/11/20 06:06:53;;;;;;;8.70;5.40;;;9.10;99.90;;;;;;5055014;28;20510;-85
2021/11/20 06:09:20;;;;;;;9.68;5.00;;;9.20;99.90;;;;;;5055284;28;20058;-86
2021/11/20 06:11:47;;;;;;;6.88;4.70;;;9.20;99.90;;;;;;5044503;28;20408;-86
2021/11/20 06:14:15;;;;;;;6.10;5.15;;;9.10;99.90;;;;;;5052376;28;20081;-86
2021/11/20 06:16:42;;;;;;;6.25;5.65;;;9.10;99.90;;;;;;5052505;28;20103;-86
2021/11/20 06:19:11;;;;;;;5.63;5.13;;;9.10;99.90;;;;;;5035158;28;20081;-86
2021/11/20 06:21:38;;;;;;;5.65;4.70;;;9.10;99.90;;;;;;5036240;28;20459;-86
2021/11/20 06:24:06;;;;;;;5.50;4.93;;;9.20;99.90;;;;;;5052391;28;20128;-86
2021/11/20 06:26:34;;;;;;;5.07;4.45;;;9.10;99.90;;;;;;5051971;28;20049;-86
2021/11/20 06:29:02;;;;;;;6.68;4.38;;;9.10;99.90;;;;;;5052714;28;20131;-86
2021/11/20 06:31:29;;;;;;;14.57;5.40;;;9.10;99.90;;;;;;5052589;28;20059;-86
2021/11/20 06:33:58;;;;;;;4.43;3.92;;;9.10;99.90;;;;;;5052621;28;20499;-86
2021/11/20 06:36:24;;;;;;;5.15;4.28;;;9.20;99.90;;;;;;5034603;28;20497;-86
2021/11/20 06:38:51;;;;;;;4.82;4.43;;;9.10;99.90;;;;;;5052218;28;20063;-87
2021/11/20 06:41:18;;;;;;;7.60;5.28;;;9.10;99.90;;;;;;5034812;28;20319;-86
2021/11/20 06:43:45;;;;;;;5.95;4.35;;;9.10;99.90;;;;;;5034877;28;20067;-86
2021/11/20 06:46:15;;;;;;;5.10;4.60;;;9.10;99.90;;;;;;5034806;28;20049;-86
2021/11/20 06:48:43;;;;;;;6.53;5.13;;;9.20;99.90;;;;;;5035056;28;20091;-86
2021/11/20 06:51:14;;;;;;;6.75;5.38;;;9.20;99.90;;;;;;5035435;28;20055;-86
2021/11/20 06:53:43;;;;;;;7.65;6.45;;;9.20;99.90;;;;;;5071473;28;20408;-86
2021/11/20 06:56:25;;;;;;;6.53;5.93;;;9.10;99.90;;;;;;5072250;28;20552;-86
2021/11/20 07:01:39;;;;;;;9.50;7.43;;;9.20;99.90;;;;;;5072504;28;20053;-86
2021/11/20 07:04:13;;;;;;;6.05;5.32;;;9.30;99.90;;;;;;5071168;28;20057;-86
2021/11/20 07:06:47;;;;;;;7.30;6.45;;;9.30;99.90;;;;;;5063549;28;20078;-86
2021/11/20 07:09:15;;;;;;;8.10;6.63;;;9.20;99.90;;;;;;5057033;28;20044;-86
2021/11/20 07:11:43;;;;;;;14.27;9.38;;;9.20;99.90;;;;;;5073142;28;20127;-86
2021/11/20 07:14:10;;;;;;;9.77;7.45;;;9.20;99.90;;;;;;5073224;28;20046;-86
2021/11/20 07:16:38;;;;;;;14.13;8.70;;;9.20;99.90;;;;;;5056327;28;20070;-87
2021/11/20 07:19:05;;;;;;;7.40;5.80;;;9.20;99.90;;;;;;5042212;28;20056;-87
2021/11/20 07:21:32;;;;;;;7.13;5.07;;;9.20;99.90;;;;;;5038407;28;20560;-87
2021/11/20 07:24:03;;;;;;;8.85;5.82;;;9.20;99.90;;;;;;5040441;28;20458;-87
2021/11/20 07:26:30;;;;;;;11.55;7.53;;;9.20;99.90;;;;;;5057676;28;20063;-86
2021/11/20 07:28:57;;;;;;;19.75;7.28;;;9.20;99.90;;;;;;5074218;28;20059;-86
2021/11/20 07:31:41;;;;;;;9.60;7.00;;;9.20;99.90;;;;;;5057478;28;20041;-87
2021/11/20 07:34:08;;;;;;;8.32;7.07;;;9.10;99.90;;;;;;5057994;28;20056;-85
2021/11/20 07:36:36;;;;;;;7.30;5.82;;;9.20;99.90;;;;;;5057306;28;20502;-86
2021/11/20 07:39:07;;;;;;;6.30;5.70;;;9.20;99.90;;;;;;5057075;28;20048;-86
2021/11/20 07:41:34;;;;;;;10.63;7.72;;;9.20;99.90;;;;;;5074978;28;20075;-86
2021/11/20 07:44:01;;;;;;;11.88;9.43;;;9.20;99.90;;;;;;5057494;28;20052;-86
2021/11/20 07:46:27;;;;;;;9.68;7.22;;;9.20;99.90;;;;;;5057311;28;20139;-86
2021/11/20 07:48:56;;;;;;;7.00;5.93;;;9.30;99.90;;;;;;5073926;28;20047;-86
2021/11/20 07:51:24;;;;;;;7.40;5.70;;;9.30;99.90;;;;;;5070904;28;20051;-86
2021/11/20 07:53:51;;;;;;;6.95;6.00;;;9.40;99.90;;;;;;5057228;28;20128;-85
2021/11/20 07:56:19;;;;;;;6.80;5.72;;;9.40;99.90;;;;;;5073497;28;20135;-85
2021/11/20 07:58:48;;;;;;;5.88;5.30;;;9.50;99.90;;;;;;5073722;28;20052;-85
2021/11/20 08:01:15;;;;;;;7.35;5.32;;;9.50;99.90;;;;;;5073804;28;20049;-86
2021/11/20 08:03:43;;;;;;;5.32;4.93;;;9.50;99.90;;;;;;5067042;28;20486;-85
2021/11/20 08:06:09;;;;;;;5.43;4.93;;;9.50;99.90;;;;;;5056597;28;20469;-85
2021/11/20 08:08:37;;;;;;;5.43;4.93;;;9.60;99.90;;;;;;5074597;28;20040;-86
2021/11/20 08:11:05;;;;;;;5.55;5.15;;;9.60;99.90;;;;;;5073723;28;20087;-86
2021/11/20 08:13:35;;;;;;;6.97;5.53;;;9.70;99.90;;;;;;5074819;28;20094;-85
2021/11/20 08:16:03;;;;;;;9.02;6.63;;;9.70;99.90;;;;;;5072807;28;20423;-86
2021/11/20 08:18:30;;;;;;;6.20;5.00;;;9.70;99.90;;;;;;5073692;28;20078;-86
2021/11/20 08:20:58;;;;;;;10.18;6.60;;;9.70;99.90;;;;;;5057323;28;20054;-85
2021/11/20 08:23:25;;;;;;;10.85;6.60;;;9.70;99.90;;;;;;5056858;28;20041;-86
2021/11/20 08:25:52;;;;;;;10.20;7.43;;;9.80;99.90;;;;;;5056274;28;20416;-86
2021/11/20 08:28:20;;;;;;;11.70;7.22;;;9.70;99.90;;;;;;5053143;28;20048;-86
2021/11/20 08:30:49;;;;;;;8.60;6.80;;;9.80;99.90;;;;;;5056392;28;20141;-85
2021/11/20 08:33:16;;;;;;;8.30;6.38;;;9.90;99.90;;;;;;5074092;28;20048;-86
2021/11/20 08:35:43;;;;;;;5.90;5.15;;;9.90;99.90;;;;;;5052138;28;20565;-85
2021/11/20 08:38:12;;;;;;;6.15;5.55;;;10.00;99.90;;;;;;5073627;28;20053;-86
2021/11/20 08:40:41;;;;;;;6.45;5.70;;;10.00;99.90;;;;;;5074029;28;20131;-86
2021/11/20 08:43:08;;;;;;;7.47;6.00;;;10.00;99.90;;;;;;5056514;28;20056;-86
2021/11/20 08:45:39;;;;;;;5.93;5.43;;;10.00;99.90;;;;;;5056596;28;20567;-86
2021/11/20 08:48:06;;;;;;;7.65;5.72;;;10.00;99.90;;;;;;5056211;28;20063;-87
2021/11/20 08:50:37;;;;;;;5.70;5.18;;;10.00;99.90;;;;;;5047417;28;20080;-86
2021/11/20 08:53:05;;;;;;;9.30;6.22;;;10.00;99.90;;;;;;5054079;28;20049;-87
2021/11/20 08:55:32;;;;;;;10.10;7.53;;;10.00;99.90;;;;;;5036454;28;20053;-88
2021/11/20 08:57:59;;;;;;;27.55;8.38;;;10.10;99.90;;;;;;5054184;28;20044;-89
2021/11/20 09:00:37;;;;;;;11.48;6.63;;;10.10;99.90;;;;;;5036247;28;20059;-89
2021/11/20 09:03:33;;;;;;;7.28;5.60;;;10.10;99.90;;;;;;5053984;28;20437;-87
2021/11/20 09:06:12;;;;;;;14.45;6.07;;;10.20;99.90;;;;;;5021439;28;20041;-86
2021/11/20 09:08:46;;;;;;;8.45;6.18;;;10.20;99.90;;;;;;5053423;28;20418;-86
2021/11/20 09:11:20;;;;;;;7.65;5.57;;;10.20;99.90;;;;;;5063902;28;20088;-86
2021/11/20 09:13:55;;;;;;;7.65;5.32;;;10.30;99.90;;;;;;5072633;28;20136;-87
2021/11/20 09:16:26;;;;;;;12.00;5.72;;;10.30;99.90;;;;;;5051074;28;20432;-87
2021/11/20 09:18:55;;;;;;;11.70;6.00;;;10.40;99.90;;;;;;5055856;28;20048;-87
2021/11/20 09:21:23;;;;;;;8.38;6.55;;;10.40;99.90;;;;;;5072208;28;20131;-87
2021/11/20 09:23:51;;;;;;;8.88;6.20;;;10.40;99.90;;;;;;5073432;28;20098;-87
2021/11/20 09:26:19;;;;;;;11.48;8.68;;;10.40;99.90;;;;;;5055656;28;20080;-86
2021/11/20 09:28:54;;;;;;;7.10;6.30;;;10.50;99.90;;;;;;5037919;28;20099;-88
2021/11/20 09:31:22;;;;;;;8.43;6.35;;;10.50;99.90;;;;;;5051538;28;20412;-87
2021/11/20 09:33:49;;;;;;;9.23;6.22;;;10.50;99.90;;;;;;5052041;28;20059;-86
2021/11/20 09:36:16;;;;;;;9.70;7.00;;;10.50;99.90;;;;;;5052509;28;20053;-85
2021/11/20 09:38:43;;;;;;;8.63;6.70;;;10.50;99.90;;;;;;5051519;28;20092;-85
2021/11/20 09:41:22;;;;;;;9.50;6.18;;;10.50;99.90;;;;;;5040641;28;20049;-86
2021/11/20 09:43:52;;;;;;;7.70;5.95;;;10.60;99.90;;;;;;5031895;28;20046;-85
2021/11/20 09:46:21;;;;;;;7.85;5.70;;;10.60;99.90;;;;;;5031444;28;20059;-85
2021/11/20 09:49:04;;;;;;;10.88;6.55;;;10.60;99.90;;;;;;5044436;28;20072;-85
2021/11/20 09:51:34;;;;;;;;;;;10.70;99.90;;;;;;5053321;28;20049;-85
2021/11/20 09:54:06;;;;;;;8.10;5.53;;;10.80;99.90;;;;;;5035100;28;19963;-85
2021/11/20 09:56:50;;;;;;;11.20;5.90;;;10.70;99.90;;;;;;5035590;28;20079;-85
2021/11/20 09:59:28;;;;;;;7.70;5.35;;;10.80;99.90;;;;;;5071286;28;20431;-84
2021/11/20 10:02:21;;;;;;;9.20;5.28;;;10.80;99.90;;;;;;5071562;28;20063;-85
2021/11/20 10:04:55;;;;;;;7.30;5.00;;;10.80;99.90;;;;;;5054812;28;20048;-85
2021/11/20 10:07:33;;;;;;;10.88;5.45;;;10.80;99.90;;;;;;5070774;28;20041;-85
2021/11/20 10:10:18;;;;;;;7.35;5.75;;;10.80;99.90;;;;;;5072603;28;20059;-85
2021/11/20 10:12:52;;;;;;;7.00;5.68;;;10.80;99.90;;;;;;5071326;28;20423;-84
2021/11/20 10:15:25;;;;;;;7.25;5.40;;;10.70;99.90;;;;;;5071166;28;20056;-85
2021/11/20 10:18:00;;;;;;;6.60;5.30;;;10.70;99.90;;;;;;5072286;28;20113;-84
2021/11/20 10:20:34;;;;;;;13.85;7.88;;;10.80;99.90;;;;;;5067701;28;20048;-85
2021/11/20 10:23:10;;;;;;;8.43;6.95;;;10.90;99.90;;;;;;5072433;28;20084;-85
2021/11/20 10:26:13;;;;;;;13.07;7.22;;;10.90;99.90;;;;;;5054444;28;20074;-85
2021/11/20 10:28:59;;;;;;;7.68;6.28;;;10.90;99.90;;;;;;5054452;28;20102;-85
2021/11/20 10:31:40;;;;;;;7.97;5.75;;;11.00;99.90;;;;;;5084824;28;20048;-84
2021/11/20 10:34:23;;;;;;;7.47;5.15;;;11.00;99.90;;;;;;5034626;28;20083;-85
2021/11/20 10:37:08;;;;;;;6.45;5.28;;;11.00;99.90;;;;;;5049595;28;20040;-86
2021/11/20 10:39:34;;;;;;;6.70;5.28;;;11.00;99.90;;;;;;5055110;28;20048;-86
2021/11/20 10:42:06;;;;;;;5.80;5.15;;;11.10;99.90;;;;;;5055903;28;20040;-87
2021/11/20 10:44:55;;;;;;;6.32;5.65;;;11.10;99.90;;;;;;5076295;28;20420;-86
2021/11/20 10:47:41;;;;;;;5.28;4.78;;;11.10;99.90;;;;;;5058268;28;20419;-86
2021/11/20 10:50:26;;;;;;;7.03;5.10;;;11.10;99.90;;;;;;5076357;28;20054;-86
2021/11/20 10:53:19;;;;;;;5.80;5.28;;;11.20;99.90;;;;;;5076313;28;20509;-86
2021/11/20 10:55:49;;;;;;;8.55;5.88;;;11.00;99.90;;;;;;5076131;28;20055;-86
2021/11/20 10:58:34;;;;;;;5.85;4.88;;;11.00;99.90;;;;;;5057762;28;20082;-86
2021/11/20 11:01:28;;;;;;;6.50;5.05;;;10.90;99.90;;;;;;5058468;28;20048;-86
2021/11/20 11:04:26;;;;;;;5.82;5.20;;;10.90;99.90;;;;;;5058400;28;20051;-86
2021/11/20 11:07:07;;;;;;;4.93;4.50;;;10.90;99.90;;;;;;5058274;28;20044;-87
2021/11/20 11:09:44;;;;;;;5.78;5.28;;;10.90;99.90;;;;;;5075337;28;20393;-87
2021/11/20 11:12:48;;;;;;;11.50;5.53;;;10.90;99.90;;;;;;5038600;28;20067;-87
2021/11/20 11:15:42;;;;;;;8.05;5.22;;;10.80;99.90;;;;;;5055886;28;20051;-87
2021/11/20 11:18:42;;;;;;;6.38;5.15;;;10.80;99.90;;;;;;5029654;28;20050;-87
2021/11/20 11:21:27;;;;;;;12.02;5.85;;;10.80;99.90;;;;;;5018642;28;20049;-87
2021/11/20 11:24:15;;;;;;;8.25;6.35;;;10.90;99.90;;;;;;5050545;28;20446;-87
2021/11/20 11:26:57;;;;;;;6.40;5.03;;;11.00;99.90;;;;;;5038667;28;20053;-87
2021/11/20 11:29:36;;;;;;;6.05;4.80;;;11.10;99.90;;;;;;5038763;28;20055;-87
2021/11/20 11:32:04;;;;;;;9.13;5.30;;;11.00;99.90;;;;;;5038697;28;20084;-87
2021/11/20 11:34:35;;;;;;;10.23;6.85;;;11.10;99.90;;;;;;5056044;28;20040;-87
2021/11/20 11:37:24;;;;;;;7.80;5.25;;;11.10;99.90;;;;;;5056384;28;20044;-87
2021/11/20 11:40:40;;;;;;;9.60;5.53;;;11.00;99.90;;;;;;5038332;28;20056;-87
2021/11/20 11:43:46;;;;;;;7.82;4.47;;;11.10;99.90;;;;;;5055970;28;20063;-87
2021/11/20 11:46:26;;;;;;;8.95;5.13;;;10.70;99.90;;;;;;5038629;28;20059;-87
2021/11/20 11:49:04;;;;;;;5.45;4.95;;;10.80;99.90;;;;;;5055899;28;20369;-87
2021/11/20 11:51:57;;;;;;;6.68;4.57;;;10.80;99.90;;;;;;5056094;28;20477;-88
2021/11/20 11:54:40;;;;;;;10.18;4.50;;;10.80;99.90;;;;;;5055047;28;20103;-86
2021/11/20 11:57:13;;;;;;;6.53;5.03;;;10.70;99.90;;;;;;5055681;28;20045;-86
2021/11/20 11:59:58;;;;;;;7.03;4.22;;;10.80;99.90;;;;;;5038161;28;20044;-86
2021/11/20 12:02:37;;;;;;;4.95;4.40;;;10.80;99.90;;;;;;5037969;28;20053;-87
2021/11/20 12:05:33;;;;;;;8.75;4.85;;;11.00;99.90;;;;;;5038304;28;20400;-87
2021/11/20 12:08:36;;;;;;;5.47;4.65;;;11.00;99.90;;;;;;5034680;28;20055;-87
2021/11/20 12:11:12;;;;;;;5.30;4.80;;;11.00;99.90;;;;;;5054675;28;20094;-88
2021/11/20 12:13:45;;;;;;;5.45;4.95;;;11.10;99.90;;;;;;5038447;28;20088;-87
2021/11/20 12:16:26;;;;;;;6.80;5.35;;;11.00;99.90;;;;;;5031867;28;20152;-86
2021/11/20 12:19:04;;;;;;;6.43;4.97;;;10.90;99.90;;;;;;5041397;28;20131;-86
2021/11/20 12:21:47;;;;;;;5.85;5.25;;;10.90;99.90;;;;;;5036961;28;20045;-87
2021/11/20 12:24:39;;;;;;;6.95;4.65;;;10.90;99.90;;;;;;5038518;28;20507;-87
2021/11/20 12:27:25;;;;;;;5.85;4.50;;;10.90;99.90;;;;;;5054530;28;20052;-87
2021/11/20 12:30:13;;;;;;;5.68;4.88;;;10.90;99.90;;;;;;5054862;28;20049;-88
2021/11/20 12:33:07;;;;;;;7.32;5.18;;;10.90;99.90;;;;;;5036663;28;20059;-88
2021/11/20 12:36:14;;;;;;;8.25;5.57;;;10.80;99.90;;;;;;5037817;28;20059;-87
2021/11/20 12:38:56;;;;;;;6.15;5.47;;;10.70;99.90;;;;;;5036507;28;20053;-87
2021/11/20 12:42:01;;;;;;;6.93;5.53;;;10.70;99.90;;;;;;5054035;28;20049;-88
2021/11/20 12:44:28;;;;;;;7.38;6.00;;;10.70;99.90;;;;;;5054383;28;20119;-88
2021/11/20 12:47:01;;;;;;;6.43;5.47;;;10.80;99.90;;;;;;5053983;28;20131;-87
2021/11/20 12:49:59;;;;;;;6.72;5.65;;;10.70;99.90;;;;;;5036473;28;20052;-87
2021/11/20 12:52:34;;;;;;;6.00;5.40;;;10.70;99.90;;;;;;5053753;28;20417;-87
2021/11/20 12:55:05;;;;;;;6.55;5.72;;;10.70;99.90;;;;;;5053906;28;20071;-87
2021/11/20 12:57:41;;;;;;;5.72;5.18;;;10.70;99.90;;;;;;5054295;28;20045;-88
2021/11/20 13:00:07;;;;;;;6.57;5.63;;;10.70;99.90;;;;;;5039223;28;20056;-86
2021/11/20 13:02:43;;;;;;;8.20;6.22;;;10.70;99.90;;;;;;5056066;28;20148;-86
2021/11/20 13:05:28;;;;;;;7.13;6.43;;;10.50;99.90;;;;;;5073139;28;20390;-88
2021/11/20 13:08:05;;;;;;;8.10;7.07;;;10.50;99.90;;;;;;5056128;28;20576;-86
2021/11/20 13:10:38;;;;;;;10.45;7.50;;;10.30;99.90;;;;;;5056204;28;20127;-88
2021/11/20 13:13:33;;;;;;;9.32;7.72;;;10.30;99.90;;;;;;5056178;28;20052;-88
2021/11/20 13:16:26;;;;;;;14.35;8.43;;;10.30;99.90;;;;;;5055903;28;20087;-86
2021/11/20 13:19:09;;;;;;;8.55;7.30;;;10.20;99.90;;;;;;5056115;28;20048;-89
2021/11/20 13:22:12;;;;;;;11.17;8.40;;;10.20;99.90;;;;;;5042966;28;20055;-88
2021/11/20 13:24:47;;;;;;;9.73;8.70;;;10.20;99.90;;;;;;5035510;28;20088;-88
2021/11/20 13:27:35;;;;;;;11.65;8.90;;;10.20;99.90;;;;;;5036280;28;20485;-88
2021/11/20 13:30:03;;;;;;;9.93;8.32;;;10.20;99.90;;;;;;5036119;28;20044;-88